createdAt,value
2023-05-05T04:03:07.752Z,98.80
2023-05-05T04:05:36.648Z,98.50
2023-05-05T04:08:05.888Z,99.60
2023-05-05T04:10:34.325Z,99.90
2023-05-05T04:13:04.648Z,99.90
2023-05-05T04:15:33.421Z,99.90
2023-05-05T04:18:01.801Z,99.90
2023-05-05T04:20:31.837Z,99.90
2023-05-05T04:23:00.636Z,99.90
2023-05-05T04:25:29.490Z,99.90
2023-05-05T04:27:57.831Z,99.90
2023-05-05T04:30:26.356Z,99.90
2023-05-05T04:32:54.706Z,99.90
2023-05-05T04:35:23.744Z,99.90
2023-05-05T04:37:54.754Z,99.90
2023-05-05T04:40:23.082Z,99.90
2023-05-05T04:42:51.406Z,99.90
2023-05-05T04:45:19.743Z,99.90
2023-05-05T04:47:48.225Z,99.90
2023-05-05T04:50:16.664Z,99.90
2023-05-05T04:52:45.077Z,99.90
2023-05-05T04:55:14.934Z,99.90
2023-05-05T04:57:43.378Z,99.90
2023-05-05T05:00:13.974Z,99.90
2023-05-05T05:02:42.248Z,99.90
2023-05-05T05:05:11.289Z,99.90
2023-05-05T05:07:39.627Z,99.90
2023-05-05T05:10:09.069Z,99.90
2023-05-05T05:12:39.003Z,99.90
2023-05-05T05:15:08.774Z,99.90
2023-05-05T05:17:37.017Z,99.90
2023-05-05T05:20:05.658Z,99.90
2023-05-05T05:22:34.947Z,99.90
2023-05-05T05:25:03.460Z,99.90
2023-05-05T05:27:33.150Z,99.90
2023-05-05T05:30:03.163Z,99.90
2023-05-05T05:32:31.739Z,99.90
2023-05-05T05:35:00.216Z,99.90
2023-05-05T05:37:31.436Z,99.90
2023-05-05T05:39:59.664Z,99.90
2023-05-05T05:42:28.005Z,99.90
2023-05-05T05:44:57.308Z,99.90
2023-05-05T05:47:28.149Z,99.90
2023-05-05T05:49:56.856Z,99.90
2023-05-05T05:52:25.105Z,99.90
2023-05-05T05:54:54.758Z,99.90
2023-05-05T05:57:25.008Z,99.90
2023-05-05T05:59:54.091Z,99.90
2023-05-05T06:02:22.919Z,99.90
2023-05-05T06:04:53.156Z,99.90
2023-05-05T06:07:22.804Z,99.90
2023-05-05T06:09:51.562Z,99.90
2023-05-05T06:12:20.047Z,99.90
2023-05-05T06:14:48.475Z,99.90
2023-05-05T06:17:17.054Z,99.90
2023-05-05T06:19:45.874Z,99.90
2023-05-05T06:22:15.695Z,99.90
2023-05-05T06:24:45.158Z,99.90
2023-05-05T06:27:13.502Z,99.90
2023-05-05T06:29:42.046Z,99.90
2023-05-05T06:32:12.752Z,99.90
2023-05-05T06:34:41.503Z,99.90
2023-05-05T06:37:09.769Z,99.90
2023-05-05T06:39:39.785Z,99.90
2023-05-05T06:42:08.233Z,99.90
2023-05-05T06:44:37.427Z,99.90
2023-05-05T06:47:05.696Z,99.90
2023-05-05T06:49:34.075Z,99.90
2023-05-05T06:52:02.704Z,99.90
2023-05-05T06:54:31.485Z,99.90
2023-05-05T06:57:02.004Z,99.90
2023-05-05T06:59:30.502Z,99.90
2023-05-05T07:01:58.873Z,99.90
2023-05-05T07:04:27.876Z,99.90
2023-05-05T07:06:58.423Z,99.90
2023-05-05T07:09:26.445Z,99.90
2023-05-05T07:11:55.155Z,99.90
2023-05-05T07:14:25.254Z,99.90
2023-05-05T07:16:53.630Z,99.90
2023-05-05T07:19:22.366Z,99.90
2023-05-05T07:21:52.073Z,99.90
2023-05-05T07:24:20.972Z,99.90
2023-05-05T07:26:49.376Z,99.90
2023-05-05T07:29:17.782Z,99.90
2023-05-05T07:31:47.631Z,99.90
2023-05-05T07:34:16.369Z,99.90
2023-05-05T07:36:44.941Z,99.90
2023-05-05T07:39:15.364Z,99.90
2023-05-05T07:41:43.752Z,99.90
2023-05-05T07:44:12.228Z,99.90
2023-05-05T07:46:41.971Z,99.90
2023-05-05T07:49:11.879Z,99.80
2023-05-05T07:51:40.488Z,99.80
2023-05-05T07:54:08.770Z,99.70
2023-05-05T07:56:37.330Z,99.70
2023-05-05T07:59:05.950Z,99.60
2023-05-05T08:01:35.041Z,99.30
2023-05-05T08:04:03.605Z,99.50
2023-05-05T08:06:34.060Z,99.00
2023-05-05T08:09:02.528Z,98.80
2023-05-05T08:11:30.965Z,98.50
2023-05-05T08:13:59.883Z,98.40
2023-05-05T08:16:28.690Z,98.40
2023-05-05T08:18:57.056Z,98.30
2023-05-05T08:21:25.228Z,97.80
2023-05-05T08:23:55.478Z,97.50
2023-05-05T08:26:24.036Z,97.10
2023-05-05T08:28:55.470Z,97.10
2023-05-05T08:31:24.027Z,97.30
2023-05-05T08:33:52.427Z,97.10
2023-05-05T08:36:22.139Z,96.60
2023-05-05T08:38:50.468Z,96.50
2023-05-05T08:41:20.853Z,96.60
2023-05-05T08:43:50.600Z,96.60
2023-05-05T08:46:19.336Z,96.10
2023-05-05T08:48:48.002Z,95.50
2023-05-05T08:51:19.607Z,95.80
2023-05-05T08:53:53.605Z,96.10
2023-05-05T08:56:23.707Z,94.70
2023-05-05T08:58:53.014Z,95.80
2023-05-05T09:01:22.549Z,95.40
2023-05-05T09:03:51.155Z,95.00
2023-05-05T09:06:22.266Z,94.90
2023-05-05T09:08:50.678Z,94.50
2023-05-05T09:11:19.117Z,94.30
2023-05-05T09:13:49.803Z,94.10
2023-05-05T09:16:18.318Z,94.80
2023-05-05T09:18:47.318Z,94.40
2023-05-05T09:21:22.877Z,93.40
2023-05-05T09:24:09.450Z,93.60
2023-05-05T09:26:38.908Z,93.50
2023-05-05T09:29:09.791Z,93.70
2023-05-05T09:31:40.237Z,93.20
2023-05-05T09:34:18.249Z,93.60
2023-05-05T09:36:49.309Z,93.00
2023-05-05T09:39:19.831Z,92.80
2023-05-05T09:41:48.030Z,92.50
2023-05-05T09:44:17.899Z,92.90
2023-05-05T09:46:52.574Z,92.70
2023-05-05T09:49:25.679Z,91.60
2023-05-05T09:51:54.210Z,91.70
2023-05-05T09:54:26.926Z,91.80
2023-05-05T09:56:56.472Z,91.60
2023-05-05T09:59:26.410Z,91.60
2023-05-05T10:02:11.979Z,91.40
2023-05-05T10:04:40.730Z,91.20
2023-05-05T10:07:09.223Z,91.50
2023-05-05T10:09:37.406Z,91.20
2023-05-05T10:12:06.915Z,91.10
2023-05-05T10:14:37.820Z,90.70
2023-05-05T10:17:06.140Z,91.30
2023-05-05T10:19:36.661Z,91.30
2023-05-05T10:22:08.727Z,90.50
2023-05-05T10:24:41.164Z,91.00
2023-05-05T10:27:14.573Z,90.30
2023-05-05T10:29:49.920Z,89.20
2023-05-05T10:32:51.478Z,90.20
2023-05-05T10:35:14.307Z,90.30
2023-05-05T10:37:43.596Z,90.70
2023-05-05T10:40:12.522Z,90.40
2023-05-05T10:42:42.018Z,90.60
2023-05-05T10:45:12.467Z,90.40
2023-05-05T10:47:41.261Z,90.90
2023-05-05T10:50:16.623Z,90.50
2023-05-05T10:52:53.740Z,90.60
2023-05-05T10:55:27.010Z,91.10
2023-05-05T10:57:56.137Z,91.20
2023-05-05T11:00:54.701Z,90.80
2023-05-05T11:03:24.297Z,90.30
2023-05-05T11:06:14.323Z,90.70
2023-05-05T11:08:43.876Z,90.40
2023-05-05T11:11:14.080Z,88.60
2023-05-05T11:13:42.952Z,90.10
2023-05-05T11:16:48.223Z,89.70
2023-05-05T11:19:46.037Z,90.30
2023-05-05T11:22:15.533Z,90.40
2023-05-05T11:24:44.918Z,90.20
2023-05-05T11:27:13.402Z,90.10
2023-05-05T11:30:07.981Z,90.00
2023-05-05T11:32:38.715Z,88.10
2023-05-05T11:35:08.103Z,88.20
2023-05-05T11:37:36.820Z,88.90
2023-05-05T11:40:13.143Z,88.40
2023-05-05T11:42:41.668Z,89.10
2023-05-05T11:45:22.608Z,88.50
2023-05-05T11:47:52.920Z,86.90
2023-05-05T11:50:23.485Z,86.50
2023-05-05T11:52:52.293Z,88.00
2023-05-05T11:55:24.316Z,88.20
2023-05-05T11:57:53.321Z,89.00
2023-05-05T12:00:22.151Z,89.40
2023-05-05T12:02:59.695Z,89.90
2023-05-05T12:05:29.770Z,90.30
2023-05-05T12:08:00.305Z,90.40
2023-05-05T12:10:29.104Z,90.20
2023-05-05T12:12:57.861Z,90.20
2023-05-05T12:15:31.125Z,90.60
2023-05-05T12:18:02.986Z,90.60
2023-05-05T12:20:32.755Z,90.80
2023-05-05T12:23:04.053Z,91.00
2023-05-05T12:25:40.022Z,91.20
2023-05-05T12:28:09.231Z,91.60
2023-05-05T12:30:38.038Z,92.30
2023-05-05T12:33:09.261Z,93.10
2023-05-05T12:35:38.398Z,93.60
2023-05-05T12:38:08.893Z,94.00
2023-05-05T12:40:48.282Z,94.40
2023-05-05T12:43:31.853Z,95.50
2023-05-05T12:46:02.070Z,96.00
2023-05-05T12:48:32.157Z,96.50
2023-05-05T12:51:20.902Z,96.90
2023-05-05T12:53:50.531Z,97.40
2023-05-05T12:56:41.542Z,98.10
2023-05-05T12:59:11.244Z,98.70
2023-05-05T13:01:50.207Z,99.40
2023-05-05T13:04:21.765Z,99.60
2023-05-05T13:06:54.046Z,99.60
2023-05-05T13:09:26.610Z,99.90
2023-05-05T13:11:55.164Z,99.90
2023-05-05T13:14:23.915Z,99.90
2023-05-05T13:16:52.412Z,99.90
2023-05-05T13:19:23.840Z,99.90
2023-05-05T13:21:52.930Z,99.90
2023-05-05T13:24:28.756Z,99.90
2023-05-05T13:27:07.239Z,99.90
2023-05-05T13:29:35.755Z,99.90
2023-05-05T13:32:04.677Z,99.90
2023-05-05T13:34:35.026Z,99.90
2023-05-05T13:37:03.358Z,99.90
2023-05-05T13:39:32.385Z,99.90
2023-05-05T13:42:00.927Z,99.90
2023-05-05T13:44:29.696Z,99.90
2023-05-05T13:46:58.236Z,99.90
2023-05-05T13:49:27.399Z,99.90
2023-05-05T13:51:57.663Z,99.90
2023-05-05T13:54:26.394Z,99.90
2023-05-05T13:56:54.886Z,99.90
2023-05-05T13:59:25.904Z,99.90
2023-05-05T14:01:54.720Z,99.90
2023-05-05T14:04:23.237Z,99.90
2023-05-05T14:06:53.331Z,99.90
2023-05-05T14:09:23.971Z,99.90
2023-05-05T14:11:53.673Z,99.90
2023-05-05T14:14:22.560Z,99.90
2023-05-05T14:16:51.406Z,99.90
2023-05-05T14:19:20.012Z,99.90
2023-05-05T14:21:48.808Z,99.90
2023-05-05T14:24:17.544Z,99.90
2023-05-05T14:26:47.851Z,99.90
2023-05-05T14:29:39.927Z,99.90
2023-05-05T14:32:08.077Z,99.90
2023-05-05T14:34:36.728Z,99.90
2023-05-05T14:37:05.231Z,99.90
2023-05-05T14:39:34.098Z,99.90
2023-05-05T14:42:04.501Z,99.90
2023-05-05T14:44:33.103Z,99.90
2023-05-05T14:47:01.740Z,99.90
2023-05-05T14:49:30.235Z,99.90
2023-05-05T14:51:59.058Z,99.90
2023-05-05T14:54:28.771Z,99.90
2023-05-05T14:56:58.628Z,99.90
2023-05-05T14:59:29.088Z,99.90
2023-05-05T15:01:57.880Z,99.90
2023-05-05T15:04:27.198Z,99.90
2023-05-05T15:06:55.701Z,99.90
2023-05-05T15:09:24.782Z,99.90
2023-05-05T15:11:53.586Z,99.90
2023-05-05T15:14:22.359Z,99.90
2023-05-05T15:16:52.125Z,99.90
2023-05-05T15:19:20.640Z,99.90
2023-05-05T15:21:53.536Z,99.90
2023-05-05T15:24:22.308Z,99.90
2023-05-05T15:26:52.685Z,99.90
2023-05-05T15:29:21.736Z,99.90
2023-05-05T15:31:52.197Z,99.90
2023-05-05T15:34:21.001Z,99.90
2023-05-05T15:36:49.587Z,99.90
2023-05-05T15:39:18.258Z,99.90
2023-05-05T15:41:46.802Z,99.90
2023-05-05T15:44:15.224Z,99.90
2023-05-05T15:46:44.032Z,99.90
2023-05-05T15:49:14.006Z,99.90
2023-05-05T15:51:42.496Z,99.90
2023-05-05T15:54:12.325Z,99.90
2023-05-05T15:56:40.839Z,99.90
2023-05-05T15:59:09.171Z,99.90
2023-05-05T16:01:37.477Z,99.90
2023-05-05T16:04:06.730Z,99.90
2023-05-05T16:06:36.688Z,99.90
2023-05-05T16:09:05.669Z,99.90
2023-05-05T16:11:34.414Z,99.90
2023-05-05T16:14:02.710Z,99.90
2023-05-05T16:16:31.117Z,99.90
2023-05-05T16:19:00.033Z,99.90
2023-05-05T16:21:28.913Z,99.90
2023-05-05T16:23:58.893Z,99.90
2023-05-05T16:26:28.047Z,99.90
2023-05-05T16:28:56.436Z,99.90
2023-05-05T16:31:24.943Z,99.90
2023-05-05T16:33:53.669Z,99.90
2023-05-05T16:36:22.655Z,99.90
2023-05-05T16:38:51.697Z,99.90
2023-05-05T16:41:22.554Z,99.90
2023-05-05T16:43:51.211Z,99.90
2023-05-05T16:46:19.649Z,99.90
2023-05-05T16:48:48.219Z,99.90
2023-05-05T16:51:16.631Z,99.90
2023-05-05T16:56:14.301Z,99.90
2023-05-05T16:58:44.342Z,99.90
2023-05-05T17:01:12.934Z,99.90
2023-05-05T17:03:41.613Z,99.90
2023-05-05T17:06:09.997Z,99.90
2023-05-05T17:08:38.219Z,99.90
2023-05-05T17:11:07.371Z,99.90
2023-05-05T17:13:36.466Z,99.90
2023-05-05T17:16:07.194Z,99.90
2023-05-05T17:18:35.916Z,99.90
2023-05-05T17:21:04.423Z,99.90
2023-05-05T17:23:32.794Z,99.90
2023-05-05T17:26:02.972Z,99.90
2023-05-05T17:28:31.867Z,99.90
2023-05-05T17:31:01.571Z,99.90
2023-05-05T17:33:31.642Z,99.90
2023-05-05T17:36:00.496Z,99.90
2023-05-05T17:38:29.218Z,99.90
2023-05-05T17:40:58.888Z,99.90
2023-05-05T17:43:27.308Z,99.90
2023-05-05T17:45:55.947Z,99.90
2023-05-05T17:48:24.382Z,99.90
2023-05-05T17:50:55.065Z,99.90
2023-05-05T17:53:23.716Z,99.90
2023-05-05T17:55:52.529Z,99.90
2023-05-05T17:58:21.050Z,99.90
2023-05-05T18:00:49.660Z,99.90
2023-05-05T18:03:20.294Z,99.90
2023-05-05T18:05:48.612Z,99.90
2023-05-05T18:08:18.615Z,99.90
2023-05-05T18:10:46.997Z,99.90
2023-05-05T18:13:15.555Z,99.90
2023-05-05T18:15:44.065Z,99.90
2023-05-05T18:18:14.112Z,99.90
2023-05-05T18:20:43.991Z,99.90
2023-05-05T18:23:12.902Z,99.90
2023-05-05T18:25:44.173Z,99.90
2023-05-05T18:28:12.657Z,99.90
2023-05-05T18:30:41.037Z,99.90
2023-05-05T18:33:09.396Z,99.90
2023-05-05T18:35:38.146Z,99.90
2023-05-05T18:38:06.998Z,99.90
2023-05-05T18:40:35.530Z,99.90
2023-05-05T18:43:06.008Z,99.90
2023-05-05T18:45:34.664Z,99.90
2023-05-05T18:48:03.144Z,99.90
2023-05-05T18:50:33.362Z,99.90
2023-05-05T18:53:02.495Z,99.90
2023-05-05T18:55:31.347Z,99.90
2023-05-05T18:57:59.758Z,99.90
2023-05-05T19:00:29.670Z,99.90
2023-05-05T19:02:58.175Z,99.90
2023-05-05T19:05:26.523Z,99.90
2023-05-05T19:07:55.075Z,99.90
2023-05-05T19:10:24.042Z,99.90
2023-05-05T19:12:53.136Z,99.90
2023-05-05T19:15:21.529Z,99.90
2023-05-05T19:17:51.422Z,99.90
2023-05-05T19:20:21.234Z,99.90
2023-05-05T19:22:49.921Z,99.90
2023-05-05T19:25:20.025Z,99.90
2023-05-05T19:27:49.043Z,99.90
2023-05-05T19:30:17.560Z,99.90
2023-05-05T19:32:46.143Z,99.90
2023-05-05T19:35:16.833Z,99.90
2023-05-05T19:37:45.256Z,99.90
2023-05-05T19:40:14.559Z,99.90
2023-05-05T19:42:43.098Z,99.90
2023-05-05T19:45:11.715Z,99.90
2023-05-05T19:47:40.597Z,99.90
2023-05-05T19:50:10.986Z,99.90
2023-05-05T19:52:41.982Z,99.90
2023-05-05T19:55:13.391Z,99.90
2023-05-05T19:57:41.968Z,99.90
2023-05-05T20:00:13.983Z,99.90
2023-05-05T20:02:42.737Z,99.90
2023-05-05T20:05:13.925Z,99.90
2023-05-05T20:07:43.966Z,99.90
2023-05-05T20:10:14.518Z,99.90
2023-05-05T20:12:48.511Z,99.90
2023-05-05T20:15:18.921Z,99.90
2023-05-05T20:17:48.085Z,99.90
2023-05-05T20:20:18.821Z,99.90
2023-05-05T20:22:50.362Z,99.90
2023-05-05T20:25:19.309Z,99.90
2023-05-05T20:27:48.046Z,99.90
2023-05-05T20:30:17.192Z,99.90
2023-05-05T20:32:46.475Z,99.90
2023-05-05T20:35:15.066Z,99.90
2023-05-05T20:37:45.398Z,99.90
2023-05-05T20:40:15.760Z,99.90
2023-05-05T20:42:44.266Z,99.90
2023-05-05T20:45:13.830Z,99.90
2023-05-05T20:47:42.594Z,99.90
2023-05-05T20:50:11.651Z,99.90
2023-05-05T20:52:40.490Z,99.90
2023-05-05T20:55:09.938Z,99.90
2023-05-05T20:57:40.011Z,99.90
2023-05-05T21:00:10.544Z,99.90
2023-05-05T21:02:39.298Z,99.90
2023-05-05T21:05:09.377Z,99.90
2023-05-05T21:07:37.765Z,99.90
2023-05-05T21:10:08.197Z,99.90
2023-05-05T21:12:37.020Z,99.90
2023-05-05T21:15:09.104Z,99.90
2023-05-05T21:17:40.274Z,99.90
2023-05-05T21:20:10.163Z,99.90
2023-05-05T21:22:39.028Z,99.90
2023-05-05T21:25:12.371Z,99.90
2023-05-05T21:27:41.220Z,99.90
2023-05-05T21:30:12.976Z,99.90
2023-05-05T21:32:42.460Z,99.90
2023-05-05T21:35:11.289Z,99.90
2023-05-05T21:37:40.487Z,99.90
2023-05-05T21:40:13.785Z,99.90
2023-05-05T21:42:43.594Z,99.90
2023-05-05T21:45:14.853Z,99.90
2023-05-05T21:47:43.579Z,99.90
